createdAt,value
2023-03-22T00:02:14.045Z,2.28
2023-03-22T00:04:43.043Z,2.13
2023-03-22T00:07:09.822Z,1.90
2023-03-22T00:09:36.673Z,2.55
2023-03-22T00:12:03.818Z,1.90
2023-03-22T00:14:30.535Z,2.55
2023-03-22T00:16:57.609Z,2.20
2023-03-22T00:19:24.540Z,2.15
2023-03-22T00:21:51.600Z,1.88
2023-03-22T00:24:18.604Z,1.83
2023-03-22T00:26:47.435Z,2.30
2023-03-22T00:29:14.255Z,2.50
2023-03-22T00:31:41.399Z,2.35
2023-03-22T00:34:08.306Z,2.78
2023-03-22T00:36:37.855Z,2.05
2023-03-22T00:39:04.610Z,2.35
2023-03-22T00:41:31.425Z,2.42
2023-03-22T00:43:58.186Z,2.97
2023-03-22T00:46:25.874Z,2.67
2023-03-22T00:48:52.570Z,2.88
2023-03-22T00:51:19.334Z,3.45
2023-03-22T00:53:49.625Z,3.17
2023-03-22T00:56:16.620Z,3.28
2023-03-22T00:58:43.677Z,3.47
2023-03-22T01:01:13.726Z,4.00
2023-03-22T01:03:41.843Z,2.72
2023-03-22T01:06:08.966Z,3.05
2023-03-22T01:08:38.698Z,3.25
2023-03-22T01:11:07.231Z,3.05
2023-03-22T01:13:34.816Z,2.63
2023-03-22T01:16:01.628Z,2.72
2023-03-22T01:18:28.315Z,2.53
2023-03-22T01:20:55.330Z,2.72
2023-03-22T01:23:22.000Z,2.30
2023-03-22T01:25:48.838Z,3.67
2023-03-22T01:28:15.707Z,2.60
2023-03-22T01:30:42.779Z,2.42
2023-03-22T01:33:11.348Z,2.47
2023-03-22T01:35:39.039Z,2.28
2023-03-22T01:38:06.040Z,2.42
2023-03-22T01:40:33.535Z,2.55
2023-03-22T01:43:00.398Z,2.15
2023-03-22T01:45:59.055Z,1.92
2023-03-22T01:48:42.081Z,1.95
2023-03-22T01:51:16.615Z,2.13
2023-03-22T01:53:49.343Z,2.25
2023-03-22T01:56:19.314Z,2.30
2023-03-22T01:58:48.593Z,2.05
2023-03-22T02:01:16.181Z,1.55
2023-03-22T02:03:51.255Z,2.03
2023-03-22T02:06:19.799Z,2.35
2023-03-22T02:08:46.901Z,2.30
2023-03-22T02:11:17.152Z,1.98
2023-03-22T02:14:18.299Z,2.55
2023-03-22T02:17:06.848Z,1.90
2023-03-22T02:22:44.991Z,2.40
2023-03-22T02:25:35.575Z,2.85
2023-03-22T02:28:11.580Z,3.40
2023-03-22T02:30:52.695Z,2.53
2023-03-22T02:34:00.461Z,3.00
2023-03-22T02:36:58.556Z,3.65
2023-03-22T02:40:08.691Z,3.38
2023-03-22T02:42:49.332Z,4.53
2023-03-22T02:45:30.108Z,4.28
2023-03-22T02:48:06.630Z,4.90
2023-03-22T02:50:53.565Z,4.72
2023-03-22T02:53:48.131Z,5.80
2023-03-22T02:56:30.416Z,5.95
2023-03-22T02:59:00.957Z,6.43
2023-03-22T03:01:33.236Z,6.57
2023-03-22T03:04:04.916Z,7.65
2023-03-22T03:06:38.868Z,7.72
2023-03-22T03:09:07.120Z,7.72
2023-03-22T03:11:34.034Z,8.07
2023-03-22T03:14:00.849Z,8.85
2023-03-22T03:16:30.827Z,8.52
2023-03-22T03:19:12.271Z,8.30
2023-03-22T03:22:01.406Z,9.93
2023-03-22T03:24:39.164Z,10.30
2023-03-22T03:27:21.692Z,9.67
2023-03-22T03:30:16.565Z,11.35
2023-03-22T03:32:54.486Z,11.02
2023-03-22T03:35:38.344Z,11.20
2023-03-22T03:38:11.831Z,11.80
2023-03-22T03:40:43.900Z,12.23
2023-03-22T03:43:12.000Z,12.00
2023-03-22T03:45:40.249Z,12.25
2023-03-22T03:48:11.755Z,12.82
2023-03-22T03:50:38.855Z,12.27
2023-03-22T03:53:06.872Z,11.98
2023-03-22T03:55:34.012Z,11.70
2023-03-22T03:58:00.658Z,12.20
2023-03-22T04:00:27.411Z,12.30
2023-03-22T04:02:54.078Z,12.95
2023-03-22T04:05:21.093Z,12.20
2023-03-22T04:07:47.767Z,13.32
2023-03-22T04:10:14.512Z,12.27
2023-03-22T04:12:41.227Z,12.35
2023-03-22T04:15:08.486Z,12.23
2023-03-22T04:17:35.145Z,11.68
2023-03-22T04:20:05.349Z,13.40
2023-03-22T04:22:34.700Z,12.95
2023-03-22T04:25:01.767Z,11.55
2023-03-22T04:27:28.575Z,11.95
2023-03-22T04:29:56.447Z,12.10
2023-03-22T04:32:23.669Z,12.17
2023-03-22T04:34:52.036Z,11.63
2023-03-22T04:37:19.935Z,11.98
2023-03-22T04:39:46.656Z,12.20
2023-03-22T04:42:13.422Z,13.05
2023-03-22T04:44:40.221Z,11.30
2023-03-22T04:47:07.130Z,12.00
2023-03-22T04:49:33.810Z,11.02
2023-03-22T04:52:00.597Z,10.25
2023-03-22T04:54:27.310Z,11.90
2023-03-22T04:56:53.963Z,10.77
2023-03-22T04:59:20.736Z,10.85
2023-03-22T05:01:48.681Z,11.02
2023-03-22T05:04:16.452Z,9.60
2023-03-22T05:06:43.468Z,10.60
2023-03-22T05:09:11.137Z,10.52
2023-03-22T05:11:37.997Z,9.90
2023-03-22T05:14:04.876Z,10.02
2023-03-22T05:16:31.821Z,9.52
2023-03-22T05:18:58.914Z,9.68
2023-03-22T05:21:28.411Z,9.43
2023-03-22T05:23:56.862Z,9.32
2023-03-22T05:26:27.388Z,10.10
2023-03-22T05:28:55.012Z,8.80
2023-03-22T05:31:22.861Z,8.82
2023-03-22T05:33:50.822Z,8.40
2023-03-22T05:36:19.189Z,9.63
2023-03-22T05:38:46.593Z,8.98
2023-03-22T05:41:14.431Z,8.18
2023-03-22T05:43:41.337Z,8.67
2023-03-22T05:46:12.378Z,8.55
2023-03-22T05:48:40.221Z,8.13
2023-03-22T05:51:08.892Z,8.40
2023-03-22T05:56:02.779Z,7.90
2023-03-22T05:58:30.775Z,7.65
2023-03-22T06:01:06.591Z,7.57
2023-03-22T06:03:33.519Z,7.45
2023-03-22T06:06:00.888Z,7.18
2023-03-22T06:08:27.642Z,7.68
2023-03-22T06:10:54.628Z,8.05
2023-03-22T06:13:21.666Z,7.13
2023-03-22T06:15:48.463Z,7.25
2023-03-22T06:18:15.457Z,6.50
2023-03-22T06:20:42.523Z,6.63
2023-03-22T06:23:09.390Z,6.22
2023-03-22T06:25:36.350Z,6.50
2023-03-22T06:28:03.112Z,6.22
2023-03-22T06:30:29.882Z,6.93
2023-03-22T06:33:00.473Z,7.00
2023-03-22T06:35:27.851Z,6.55
2023-03-22T06:37:54.579Z,5.90
2023-03-22T06:40:21.309Z,5.82
2023-03-22T06:42:48.320Z,5.68
2023-03-22T06:45:16.522Z,5.47
2023-03-22T06:47:44.314Z,6.07
2023-03-22T06:50:12.018Z,5.80
2023-03-22T06:52:38.743Z,5.25
2023-03-22T06:55:06.818Z,4.63
2023-03-22T06:57:33.519Z,4.95
2023-03-22T07:00:00.199Z,4.68
2023-03-22T07:02:26.899Z,4.90
2023-03-22T07:04:53.637Z,4.20
2023-03-22T07:07:20.380Z,4.57
2023-03-22T07:09:47.349Z,4.80
2023-03-22T07:12:14.097Z,3.70
2023-03-22T07:14:41.105Z,3.85
2023-03-22T07:17:07.737Z,4.22
2023-03-22T07:19:34.770Z,4.63
2023-03-22T07:22:01.412Z,4.20
2023-03-22T07:24:28.267Z,3.70
2023-03-22T07:26:55.055Z,3.88
2023-03-22T07:29:21.784Z,4.20
2023-03-22T07:31:48.573Z,3.22
2023-03-22T07:34:16.314Z,3.38
2023-03-22T07:36:43.098Z,3.45
2023-03-22T07:39:09.829Z,3.72
2023-03-22T07:41:36.635Z,4.22
2023-03-22T07:44:16.897Z,4.07
2023-03-22T07:46:44.285Z,2.97
2023-03-22T07:49:11.106Z,3.55
2023-03-22T07:51:38.258Z,3.45
2023-03-22T07:54:07.783Z,3.10
2023-03-22T07:56:35.135Z,3.25
2023-03-22T07:59:02.147Z,3.13
2023-03-22T08:01:29.012Z,3.90
2023-03-22T08:03:55.724Z,3.38
2023-03-22T08:06:22.438Z,2.60
2023-03-22T08:08:49.199Z,3.42
2023-03-22T08:11:15.972Z,2.60
2023-03-22T08:13:42.774Z,2.92
2023-03-22T08:16:09.497Z,2.80
2023-03-22T08:18:36.362Z,3.28
2023-03-22T08:21:03.664Z,4.40
2023-03-22T08:23:40.806Z,2.58
2023-03-22T08:26:08.821Z,3.03
2023-03-22T08:28:35.610Z,3.35
2023-03-22T08:31:02.382Z,2.95
2023-03-22T08:33:29.105Z,2.67
2023-03-22T08:36:06.724Z,3.03
2023-03-22T08:38:33.441Z,3.40
2023-03-22T08:41:00.189Z,3.28
2023-03-22T08:43:27.092Z,3.22
2023-03-22T08:45:53.824Z,2.63
2023-03-22T08:48:21.145Z,3.75
2023-03-22T08:50:47.918Z,3.58
2023-03-22T08:53:14.747Z,3.35
2023-03-22T08:55:44.857Z,3.28
2023-03-22T08:58:12.717Z,3.13
2023-03-22T09:00:48.734Z,3.73
2023-03-22T09:03:16.220Z,2.92
2023-03-22T09:05:43.394Z,3.05
2023-03-22T09:08:18.347Z,3.63
2023-03-22T09:10:51.195Z,3.95
2023-03-22T09:13:18.599Z,2.92
2023-03-22T09:15:45.781Z,3.00
2023-03-22T09:18:13.214Z,3.13
2023-03-22T09:20:41.176Z,3.22
2023-03-22T09:23:08.222Z,4.20
2023-03-22T09:25:35.285Z,2.92
2023-03-22T09:28:02.432Z,3.50
2023-03-22T09:30:29.464Z,3.08
2023-03-22T09:32:56.452Z,3.38
2023-03-22T09:35:23.203Z,3.65
2023-03-22T09:37:53.228Z,2.90
2023-03-22T09:40:21.533Z,2.63
2023-03-22T09:42:54.413Z,2.70
2023-03-22T09:45:35.126Z,3.55
2023-03-22T09:48:05.667Z,3.17
2023-03-22T09:50:33.437Z,2.67
2023-03-22T09:53:00.745Z,3.10
2023-03-22T09:55:41.505Z,2.90
2023-03-22T09:58:20.471Z,2.50
2023-03-22T10:01:24.461Z,3.13
2023-03-22T10:04:26.162Z,2.70
2023-03-22T10:07:13.284Z,3.17
2023-03-22T10:09:55.782Z,2.63
2023-03-22T10:12:49.134Z,2.70
2023-03-22T10:15:17.466Z,2.97
2023-03-22T10:17:49.744Z,2.80
2023-03-22T10:20:43.497Z,3.10
2023-03-22T10:23:18.380Z,3.60
2023-03-22T10:25:45.982Z,3.55
2023-03-22T10:28:22.154Z,3.55
2023-03-22T10:30:54.852Z,2.60
2023-03-22T10:33:31.239Z,3.28
2023-03-22T10:35:58.133Z,3.75
2023-03-22T10:38:27.496Z,3.28
2023-03-22T10:40:57.247Z,3.20
2023-03-22T10:43:33.810Z,3.47
2023-03-22T10:46:04.011Z,4.55
2023-03-22T10:48:41.876Z,2.85
2023-03-22T10:51:16.012Z,3.10
2023-03-22T10:53:47.516Z,2.65
2023-03-22T10:56:18.677Z,3.75
2023-03-22T10:58:49.710Z,3.20
2023-03-22T11:01:29.871Z,3.17
2023-03-22T11:03:59.580Z,3.50
2023-03-22T11:06:32.771Z,3.05
2023-03-22T11:09:03.446Z,2.75
2023-03-22T11:11:34.775Z,3.63
2023-03-22T11:14:35.610Z,3.03
2023-03-22T11:17:22.617Z,2.70
2023-03-22T11:19:59.832Z,3.95
2023-03-22T11:22:41.584Z,3.00
2023-03-22T11:25:26.780Z,3.25
2023-03-22T11:28:05.554Z,3.28
2023-03-22T11:30:33.949Z,3.45
2023-03-22T11:33:16.860Z,3.15
2023-03-22T11:35:46.249Z,3.22
2023-03-22T11:38:37.590Z,2.70
2023-03-22T11:41:21.891Z,2.65
2023-03-22T11:43:55.704Z,2.67
2023-03-22T11:46:28.345Z,2.65
2023-03-22T11:49:01.269Z,2.63
2023-03-22T11:51:41.761Z,1.85
2023-03-22T11:54:15.949Z,2.53
2023-03-22T11:56:49.024Z,2.97
2023-03-22T11:59:28.818Z,3.13
2023-03-22T12:02:05.625Z,2.95
2023-03-22T12:04:38.168Z,2.97
2023-03-22T12:07:13.332Z,2.50
2023-03-22T12:10:00.396Z,2.90
2023-03-22T12:12:34.881Z,3.22
2023-03-22T12:15:25.333Z,2.63
2023-03-22T12:17:58.826Z,2.80
2023-03-22T12:20:47.166Z,2.90
2023-03-22T12:23:20.671Z,2.85
2023-03-22T12:26:05.596Z,2.80
2023-03-22T12:28:53.944Z,2.90
2023-03-22T12:31:25.319Z,2.80
2023-03-22T12:33:54.768Z,3.58
2023-03-22T12:36:31.261Z,2.40
2023-03-22T12:39:00.486Z,2.40
2023-03-22T12:41:37.505Z,3.03
2023-03-22T12:44:40.313Z,2.30
2023-03-22T12:47:12.373Z,2.13
2023-03-22T12:49:54.185Z,2.92
2023-03-22T12:52:45.635Z,2.45
2023-03-22T12:55:32.053Z,2.70
2023-03-22T12:58:00.156Z,2.50
2023-03-22T13:00:52.579Z,2.75
2023-03-22T13:03:52.079Z,2.40
2023-03-22T13:06:55.572Z,2.70
2023-03-22T13:09:28.261Z,3.22
2023-03-22T13:12:16.869Z,2.80
2023-03-22T13:14:52.488Z,2.90
2023-03-22T13:17:25.767Z,3.08
2023-03-22T13:20:07.873Z,3.10
2023-03-22T13:22:40.346Z,3.58
2023-03-22T13:25:13.478Z,3.38
2023-03-22T13:28:05.163Z,3.05
2023-03-22T13:30:52.506Z,2.72
2023-03-22T13:33:34.649Z,2.63
2023-03-22T13:36:24.949Z,2.95
2023-03-22T13:39:08.149Z,2.65
2023-03-22T13:41:35.803Z,2.63
2023-03-22T13:44:19.639Z,2.88
2023-03-22T13:46:57.097Z,3.10
2023-03-22T13:49:31.667Z,3.20
2023-03-22T13:52:01.892Z,3.20
2023-03-22T13:54:38.679Z,2.72
2023-03-22T13:57:17.527Z,2.80
2023-03-22T14:00:20.579Z,2.53
2023-03-22T14:02:49.757Z,2.88
2023-03-22T14:05:22.265Z,3.33
2023-03-22T14:07:58.124Z,2.92
2023-03-22T14:10:43.383Z,2.60
2023-03-22T14:13:36.521Z,2.60
2023-03-22T14:16:19.075Z,2.60
2023-03-22T14:18:48.561Z,3.00
2023-03-22T14:21:34.145Z,2.92
